Latest Weather Observations for Jabiru

IDD60801

Issued at 4:35 pm CST Saturday 1 November 2014 (issued every 30 minutes, with the page automatically refreshed every 10 minutes)

About weather observations | Map of weather stations | Latest weather observations for NT | Other Formats
Station Details ID: 014198 Name: JABIRU AIRPORT Lat: -12.66 Lon: 132.89 Height: 26.5 m
Data from the previous 72 hours. | See also: Recent months at Jabiru
Date/Time
CST
Temp
°C
App
Temp
°C
Dew
Point
Rel
Hum
%
Delta-T
°C
Wind Press
QNH
hPa
Press
MSL
hPa
Rain
since 9 am
mm
Dir
 
Spd
km/h
Gust
km/h
Spd
kts
Gust
kts
01/04:30pm 38.4 33.6 9.0 17 17.1 E 24 35 13 19 1006.0 1005.8 0.0
01/04:00pm 37.9 35.9 10.3 19 16.3 N 11 20 6 11 1006.1 1005.9 0.0
01/03:30pm 37.7 35.2 10.9 20 15.9 NNE 15 24 8 13 1006.6 1006.4 0.0
01/03:00pm 37.8 35.9 11.7 21 15.7 E 13 20 7 11 1007.1 1006.9 0.0
01/02:30pm 37.9 34.9 12.5 22 15.5 E 20 26 11 14 1007.5 1007.3 0.0
01/02:00pm 36.9 35.4 13.0 24 14.6 ENE 13 20 7 11 1008.2 1007.9 0.0
01/01:30pm 36.7 34.7 12.8 24 14.5 N 15 22 8 12 1008.8 1008.5 0.0
01/01:00pm 37.0 34.9 13.7 25 14.4 N 17 26 9 14 1009.4 1009.1 0.0
01/12:30pm 35.2 34.0 15.0 30 12.6 NE 15 26 8 14 1010.1 1009.8 0.0
01/12:00pm 34.8 35.4 15.7 32 12.0 ENE 7 17 4 9 1010.9 1010.6 0.0
01/11:30am 33.8 35.1 17.5 38 10.5 NNE 7 15 4 8 1011.5 1011.2 0.0
01/11:00am 33.2 34.4 18.2 41 9.7 NNW 9 19 5 10 1012.0 1011.7 0.0
01/10:30am 31.3 33.0 18.6 46 8.2 NW 7 15 4 8 1012.4 1012.1 0.0
01/10:00am 30.6 32.2 19.9 52 7.0 W 11 17 6 9 1012.7 1012.4 0.0
01/09:30am 29.4 31.3 20.5 58 5.9 NW 11 17 6 9 1013.1 1012.9 0.0
01/09:00am 29.3 32.0 20.7 59 5.7 NNW 7 13 4 7 1013.1 1012.9 0.0
01/08:30am 28.3 30.1 20.3 62 5.3 NE 11 15 6 8 1013.0 1012.8 0.0
01/08:00am 27.2 29.6 20.0 64 4.7 N 7 13 4 7 1012.7 1012.5 0.0
01/07:30am 26.1 28.8 20.7 72 3.6 WNW 7 9 4 5 1012.2 1012.0 0.0
01/07:00am 24.2 27.0 20.5 80 2.4 N 6 7 3 4 1011.6 1011.4 0.0
01/06:30am 23.9 28.1 21.0 84 1.9 CALM 0 0 0 0 1011.3 1011.1 0.0
01/06:00am 23.0 27.0 20.5 86 1.6 WNW 0 0 0 0 1010.6 1010.3 0.0
01/05:30am 23.1 26.9 20.2 84 1.9 CALM 0 0 0 0 1010.2 1009.9 0.0
01/05:00am 23.5 27.2 20.0 81 2.3 CALM 0 0 0 0 1009.8 1009.5 0.0
01/04:30am 23.9 27.8 20.4 81 2.3 CALM 0 0 0 0 1009.4 1009.1 0.0
01/04:00am 24.0 28.1 20.7 82 2.2 CALM 0 0 0 0 1009.1 1008.8 0.0
01/03:30am 24.2 28.4 20.9 82 2.2 CALM 0 0 0 0 1009.0 1008.7 0.0
01/03:00am 24.4 28.4 20.5 79 2.5 CALM 0 0 0 0 1008.9 1008.6 0.0
01/02:30am 24.8 28.8 20.5 77 2.8 CALM 0 0 0 0 1009.0 1008.7 0.0
01/02:00am 25.0 29.2 20.9 78 2.7 CALM 0 0 0 0 1009.1 1008.8 0.0
01/01:30am 25.3 29.5 21.0 77 2.8 CALM 0 0 0 0 1009.3 1009.0 0.0
01/01:00am 25.2 28.4 20.5 75 3.1 NW 4 7 2 4 1009.6 1009.3 0.0
01/12:30am 26.3 30.1 21.7 76 3.1 N 4 7 2 4 1009.7 1009.4 0.0
01/12:00am 26.3 29.4 21.1 73 3.4 NNW 6 7 3 4 1009.9 1009.6 0.0
 
Date/Time
CST
Temp
°C
App
Temp
°C
Dew
Point
Rel
Hum
%
Delta-T
°C
Wind Press
QNH
hPa
Press
MSL
hPa
Rain
since 9 am
mm
Dir
 
Spd
km/h
Gust
km/h
Spd
kts
Gust
kts
31/11:30pm 26.6 29.9 21.4 73 3.5 N 6 7 3 4 1010.1 1009.8 0.0
31/11:00pm 26.7 29.8 21.0 71 3.8 NNE 6 7 3 4 1010.4 1010.1 0.0
31/10:30pm 26.8 29.7 20.6 69 4.1 NNE 6 7 3 4 1010.4 1010.1 0.0
31/10:00pm 27.1 29.7 20.4 66 4.4 N 7 9 4 5 1010.3 1010.0 0.0
31/09:30pm 27.6 29.9 19.9 63 5.0 N 7 9 4 5 1010.0 1009.7 0.0
31/09:00pm 28.2 29.9 19.4 59 5.7 N 9 15 5 8 1009.6 1009.3 0.0
31/08:30pm 28.6 30.0 18.7 55 6.4 N 9 13 5 7 1009.1 1008.8 0.0
31/08:00pm 29.6 30.9 18.4 51 7.2 NNW 9 13 5 7 1008.7 1008.4 0.0
31/07:30pm 30.6 30.4 17.7 46 8.2 NNW 15 20 8 11 1008.2 1007.9 0.0
31/07:00pm 31.5 30.4 17.4 43 9.0 N 19 28 10 15 1007.7 1007.5 0.0
31/06:30pm 33.1 32.7 18.1 41 9.7 N 17 24 9 13 1007.1 1006.9 0.0
31/06:00pm 34.9 33.8 17.2 35 11.4 NNW 19 26 10 14 1006.5 1006.3 0.0
31/05:30pm 37.3 35.0 10.6 20 15.8 NNE 13 20 7 11 1006.2 1006.0 0.0
31/05:00pm 37.4 35.0 11.4 21 15.5 NNE 15 22 8 12 1006.2 1006.0 0.0
31/04:30pm 37.1 34.6 11.1 21 15.5 N 15 28 8 15 1006.2 1006.0 0.0
31/04:00pm 37.2 34.9 11.9 22 15.2 N 15 26 8 14 1006.4 1006.2 0.0
31/03:30pm 37.3 36.4 12.7 23 15.0 NNE 9 20 5 11 1006.6 1006.4 0.0
31/03:00pm 36.8 35.8 13.5 24 14.3 NNE 11 19 6 10 1006.9 1006.7 0.0
31/02:30pm 36.4 36.3 13.8 26 13.9 W 7 15 4 8 1007.3 1007.1 0.0
31/02:00pm 36.0 34.8 14.1 27 13.5 N 13 26 7 14 1007.8 1007.6 0.0
31/01:30pm 35.5 33.8 13.6 26 13.4 NNE 15 24 8 13 1008.4 1008.1 0.0
31/01:00pm 35.0 34.3 14.3 29 12.8 N 11 20 6 11 1009.0 1008.7 0.0
31/12:30pm 33.6 34.5 16.5 36 10.8 NNW 7 17 4 9 1009.6 1009.3 0.0
31/12:00pm 33.0 33.1 16.4 37 10.5 ENE 11 20 6 11 1010.4 1010.1 0.0
31/11:30am 31.7 32.1 17.2 42 9.2 WNW 11 17 6 9 1011.0 1010.7 0.0
31/11:00am 31.2 31.7 17.5 44 8.7 N 11 20 6 11 1011.5 1011.3 0.0
31/10:30am 30.1 31.0 19.2 52 7.1 WNW 13 19 7 10 1011.9 1011.7 0.0
31/10:00am 29.8 31.1 19.2 53 6.9 WNW 11 15 6 8 1012.3 1012.1 0.0
31/09:30am 28.8 29.6 19.1 55 6.3 NNW 13 20 7 11 1012.3 1012.1 0.0
31/09:00am 28.8 30.6 20.3 60 5.6 N 11 17 6 9 1012.4 1012.2 0.0
31/08:30am 27.3 28.4 19.6 62 5.0 N 13 17 7 9 1012.3 1012.1 0.0
31/08:00am 26.2 28.1 19.8 68 4.2 N 9 13 5 7 1011.9 1011.7 0.0
31/07:30am 24.4 26.8 19.7 75 3.0 NNE 6 7 3 4 1011.5 1011.3 0.0
31/07:00am 23.1 25.3 19.1 78 2.5 NNE 6 7 3 4 1011.0 1010.7 0.0
31/06:30am 23.0 26.4 19.4 80 2.3 CALM 0 0 0 0 1010.6 1010.3 0.0
31/06:00am 22.6 26.0 19.4 82 2.0 CALM 0 0 0 0 1010.5 1010.2 0.0
31/05:30am 22.4 24.6 19.6 84 1.8 SW 7 9 4 5 1010.1 1009.8 0.0
31/05:00am 22.2 24.4 19.6 85 1.7 SW 7 9 4 5 1009.8 1009.5 0.0
31/04:30am 22.9 26.7 20.1 84 1.8 CALM 0 0 0 0 1009.5 1009.2 0.0
31/04:00am 23.3 26.9 19.7 80 2.3 CALM 0 0 0 0 1009.1 1008.8 0.0
31/03:30am 23.7 26.3 20.0 80 2.4 SSW 6 7 3 4 1008.9 1008.6 0.0
31/03:00am 23.8 26.2 20.1 80 2.4 SSW 7 7 4 4 1009.0 1008.7 0.0
31/02:30am 23.7 25.8 20.2 81 2.3 SW 9 11 5 6 1009.1 1008.8 0.0
31/02:00am 24.3 28.2 20.4 79 2.5 CALM 0 0 0 0 1009.2 1008.9 0.0
31/01:30am 25.2 29.0 20.2 74 3.3 CALM 0 0 0 0 1009.3 1009.0 0.0
31/01:00am 25.6 28.8 20.6 74 3.3 NNW 4 6 2 3 1009.5 1009.2 0.0
31/12:30am 25.6 28.5 21.1 76 3.0 WNW 7 9 4 5 1009.6 1009.3 0.0
31/12:00am 25.7 29.1 21.6 78 2.7 NW 6 9 3 5 1009.8 1009.5 0.0
 
Date/Time
CST
Temp
°C
App
Temp
°C
Dew
Point
Rel
Hum
%
Delta-T
°C
Wind Press
QNH
hPa
Press
MSL
hPa
Rain
since 9 am
mm
Dir
 
Spd
km/h
Gust
km/h
Spd
kts
Gust
kts
30/11:30pm 26.1 29.1 21.3 75 3.2 NNW 7 9 4 5 1009.9 1009.6 0.0
30/11:00pm 26.3 29.3 21.3 74 3.3 N 7 9 4 5 1010.1 1009.8 0.0
30/10:30pm 26.6 29.7 21.1 72 3.6 N 6 7 3 4 1010.1 1009.8 0.0
30/10:00pm 27.1 30.3 21.2 70 3.9 N 6 7 3 4 1010.0 1009.7 0.0
30/09:30pm 27.5 30.3 20.8 67 4.4 N 7 9 4 5 1009.6 1009.3 0.0
30/09:00pm 28.0 31.0 20.8 65 4.8 N 6 7 3 4 1009.3 1009.0 0.0
30/08:30pm 28.8 31.0 20.5 61 5.5 N 9 11 5 6 1009.0 1008.7 0.0
30/08:00pm 29.4 31.2 20.3 58 6.0 N 11 17 6 9 1008.7 1008.4 0.0
30/07:30pm 30.0 30.7 19.7 54 6.8 N 15 20 8 11 1008.3 1008.0 0.0
30/07:00pm 31.2 31.5 19.5 49 7.7 NNW 17 24 9 13 1007.8 1007.6 0.0
30/06:30pm 32.5 32.0 19.0 44 8.8 NNW 20 28 11 15 1007.3 1007.1 0.0
30/06:00pm 34.2 33.5 18.3 39 10.4 N 19 24 10 13 1006.8 1006.6 0.0
30/05:30pm 35.9 34.0 17.6 34 11.9 NNW 24 32 13 17 1006.4 1006.2 0.0
30/05:00pm 37.9 35.2 11.8 21 15.7 NNE 17 26 9 14 1006.2 1006.0 0.0
30/04:30pm 38.1 35.9 12.0 21 15.8 NNE 15 28 8 15 1006.0 1005.8 0.0
30/04:00pm 38.3 35.1 11.4 20 16.1 NNE 19 33 10 18 1006.1 1005.9 0.0
30/03:30pm 38.2 35.0 12.0 21 15.9 E 20 26 11 14 1006.4 1006.2 0.0
30/03:00pm 37.3 35.3 12.7 23 15.0 NNE 15 28 8 15 1006.9 1006.7 0.0
30/02:30pm 37.7 35.8 13.0 23 15.1 NE 15 26 8 14 1007.4 1007.2 0.0
30/02:00pm 36.6 36.2 14.0 26 14.0 N 9 17 5 9 1007.7 1007.5 0.0
30/01:30pm 36.0 35.4 14.6 27 13.3 NE 11 28 6 15 1008.4 1008.1 0.0
30/01:00pm 36.0 33.7 14.6 27 13.3 ENE 20 26 11 14 1009.1 1008.8 0.0
30/12:30pm 34.6 34.5 16.9 35 11.3 NNE 13 19 7 10 1009.8 1009.5 0.0
30/12:00pm 33.4 33.9 17.5 38 10.2 N 11 24 6 13 1010.5 1010.2 0.0
30/11:30am 32.0 33.4 18.6 45 8.7 ENE 9 24 5 13 1011.1 1010.9 0.0
30/11:00am 31.8 33.2 18.7 45 8.5 NNE 9 19 5 10 1011.5 1011.3 0.0
30/10:30am 29.9 30.7 19.0 52 7.1 NW 13 19 7 10 1011.9 1011.7 0.0
30/10:00am 30.1 32.0 19.8 54 6.8 NNW 9 17 5 9 1012.2 1012.0 0.0
30/09:30am 28.8 30.3 19.7 58 5.9 NNW 11 19 6 10 1012.3 1012.1 0.0
30/09:00am 28.4 30.1 20.1 60 5.4 N 11 17 6 9 1012.4 1012.2 0.0
30/08:30am 27.4 29.0 20.0 64 4.8 NNW 11 17 6 9 1012.2 1012.0 0.0
30/08:00am 26.4 28.4 20.0 68 4.2 NNW 9 13 5 7 1012.0 1011.8 0.0
30/07:30am 24.7 26.8 19.3 72 3.5 N 7 9 4 5 1011.8 1011.6 0.0
30/07:00am 23.8 26.9 18.7 73 3.2 CALM 0 0 0 0 1011.5 1011.3 0.0
30/06:30am 22.2 25.3 18.6 80 2.3 CALM 0 0 0 0 1011.4 1011.2 0.0
30/06:00am 21.9 24.8 18.3 80 2.3 CALM 0 0 0 0 1011.3 1011.1 0.0
30/05:30am 21.6 24.4 18.0 80 2.2 CALM 0 0 0 0 1010.7 1010.4 0.0
30/05:00am 22.0 24.9 18.2 79 2.4 CALM 0 0 0 0 1010.4 1010.1 0.0
30/04:30am 21.7 24.4 17.7 78 2.5 CALM 0 0 0 0 1010.3 1010.0 0.0
30/04:00am 22.5 25.2 17.8 75 2.9 CALM 0 0 0 0 1010.2 1009.9 0.0
30/03:30am 22.7 25.3 17.4 72 3.3 CALM 0 0 0 0 1010.2 1009.9 0.0
30/03:00am 23.4 26.1 17.8 71 3.5 CALM 0 0 0 0 1010.2 1009.9 0.0
30/02:30am 23.7 26.4 17.7 69 3.7 CALM 0 0 0 0 1010.3 1010.0 0.0
30/02:00am 23.9 26.2 17.6 68 3.9 SW 2 6 1 3 1010.8 1010.5 0.0
30/01:30am 24.7 26.3 17.9 66 4.3 WNW 6 7 3 4 1010.9 1010.6 0.0
30/01:00am 24.8 26.5 18.0 66 4.3 W 6 9 3 5 1011.1 1010.9 0.0
30/12:30am 25.2 26.8 18.2 65 4.4 NW 7 9 4 5 1011.4 1011.2 0.0
30/12:00am 25.8 27.6 18.2 63 4.8 N 6 9 3 5 1011.7 1011.5 0.0
 
Date/Time
CST
Temp
°C
App
Temp
°C
Dew
Point
Rel
Hum
%
Delta-T
°C
Wind Press
QNH
hPa
Press
MSL
hPa
Rain
since 9 am
mm
Dir
 
Spd
km/h
Gust
km/h
Spd
kts
Gust
kts
29/11:30pm 26.2 27.3 18.1 61 5.1 N 9 13 5 7 1011.9 1011.7 0.0
29/11:00pm 26.5 27.4 17.6 58 5.6 N 9 13 5 7 1012.2 1012.0 0.0
29/10:30pm 27.1 27.9 17.3 55 6.1 N 9 13 5 7 1012.2 1012.0 0.0
29/10:00pm 27.6 27.5 15.9 49 7.2 N 11 17 6 9 1011.6 1011.4 0.0
29/09:30pm 28.7 26.4 11.7 35 9.8 N 15 22 8 12 1011.1 1010.9 0.0
29/09:00pm 29.5 27.9 11.5 33 10.4 N 11 17 6 9 1010.9 1010.6 0.0
29/08:30pm 30.1 28.4 12.5 34 10.4 N 13 17 7 9 1010.6 1010.3 0.0
29/08:00pm 30.8 30.3 16.0 40 9.2 NNW 13 17 7 9 1010.1 1009.8 0.0
29/07:30pm 31.3 31.5 18.6 46 8.2 NNW 15 20 8 11 1009.5 1009.2 0.0
29/07:00pm 31.7 31.6 20.0 50 7.7 NW 20 32 11 17 1009.0 1008.7 0.0
29/06:30pm 32.6 33.0 19.8 46 8.5 NNW 17 24 9 13 1008.1 1007.8 0.0
29/06:00pm 33.8 32.4 18.7 40 9.9 NNW 24 37 13 20 1007.4 1007.2 0.0
29/05:30pm 37.5 34.6 12.8 22 15.1 N 20 32 11 17 1006.9 1006.7 0.0
29/05:00pm 39.4 34.7 5.9 13 18.6 E 20 26 11 14 1006.7 1006.5 0.0

Other Formats:

Comma delimited format used in spreadsheet applications
http://www.bom.gov.au/fwo/IDD60801/IDD60801.94137.axf

JavaScript Object Notation format (JSON) in row-major order
http://www.bom.gov.au/fwo/IDD60801/IDD60801.94137.json